createdAt,value
2018-08-03T00:04:30.821Z,94.90
2018-08-03T00:09:23.845Z,95.20
2018-08-03T00:14:16.848Z,95.70
2018-08-03T00:19:09.875Z,96.00
2018-08-03T00:24:02.896Z,96.30
2018-08-03T00:28:55.876Z,96.50
2018-08-03T00:33:48.952Z,96.50
2018-08-03T00:38:41.932Z,96.60
2018-08-03T00:43:34.893Z,96.60
2018-08-03T00:48:27.879Z,96.70
2018-08-03T00:53:20.888Z,96.80
2018-08-03T00:58:13.900Z,97.00
2018-08-03T01:03:07.981Z,97.40
2018-08-03T01:08:00.968Z,97.50
2018-08-03T01:12:53.961Z,97.80
2018-08-03T01:17:46.966Z,97.90
2018-08-03T01:22:39.972Z,98.20
2018-08-03T01:32:26.057Z,99.00
2018-08-03T01:37:19.047Z,99.00
2018-08-03T01:42:12.064Z,99.10
2018-08-03T01:47:05.228Z,98.90
2018-08-03T01:51:58.243Z,98.40
2018-08-03T01:56:51.256Z,98.60
2018-08-03T02:06:37.252Z,99.30
2018-08-03T02:11:30.314Z,99.40
2018-08-03T02:16:23.332Z,99.50
2018-08-03T02:26:09.394Z,99.90
2018-08-03T02:31:02.417Z,99.90
2018-08-03T02:35:55.520Z,99.90
2018-08-03T02:40:48.538Z,99.90
2018-08-03T02:45:41.636Z,99.90
2018-08-03T02:50:34.666Z,99.90
2018-08-03T02:55:27.704Z,99.90
2018-08-03T03:00:20.745Z,99.90
2018-08-03T03:05:13.774Z,99.90
2018-08-03T03:10:06.763Z,99.90
2018-08-03T03:14:59.798Z,99.90
2018-08-03T03:19:52.827Z,99.90
2018-08-03T03:29:38.802Z,99.90
2018-08-03T03:34:31.862Z,99.90
2018-08-03T03:39:24.862Z,99.90
2018-08-03T03:49:10.820Z,99.90
2018-08-03T03:58:56.753Z,99.90
2018-08-03T04:03:49.772Z,99.90
2018-08-03T04:08:42.748Z,99.90
2018-08-03T04:13:35.747Z,99.90
2018-08-03T04:18:28.720Z,99.90
2018-08-03T04:23:21.770Z,99.90
2018-08-03T04:28:14.788Z,99.90
2018-08-03T04:33:07.756Z,99.90
2018-08-03T04:38:00.781Z,99.90
2018-08-03T04:42:53.792Z,99.70
2018-08-03T04:47:46.742Z,98.40
2018-08-03T04:52:39.773Z,97.10
2018-08-03T04:57:32.748Z,96.20
2018-08-03T05:02:25.797Z,94.80
2018-08-03T05:07:18.810Z,94.30
2018-08-03T05:12:11.872Z,92.70
2018-08-03T05:17:04.888Z,91.20
2018-08-03T05:21:57.922Z,90.50
2018-08-03T05:26:50.924Z,88.90
2018-08-03T05:31:43.955Z,87.80
2018-08-03T05:36:36.961Z,86.30
2018-08-03T05:46:22.984Z,83.70
2018-08-03T05:51:16.023Z,81.90
2018-08-03T05:56:09.053Z,80.40
2018-08-03T06:05:55.505Z,80.20
2018-08-03T06:10:51.684Z,80.40
2018-08-03T06:15:44.713Z,82.50
2018-08-03T06:20:37.738Z,82.20
2018-08-03T06:25:30.708Z,78.50
2018-08-03T06:30:23.884Z,77.30
2018-08-03T06:35:16.884Z,76.70
2018-08-03T06:45:10.067Z,82.10
2018-08-03T06:50:05.567Z,82.60
2018-08-03T06:54:59.150Z,85.00
2018-08-03T06:59:52.751Z,86.30
2018-08-03T07:04:46.072Z,86.40
2018-08-03T07:09:39.710Z,84.80
2018-08-03T07:14:33.130Z,90.00
2018-08-03T07:19:40.715Z,90.30
2018-08-03T07:24:34.928Z,90.50
2018-08-03T07:29:27.982Z,91.40
2018-08-03T07:34:20.956Z,91.90
2018-08-03T07:39:13.977Z,91.90
2018-08-03T07:44:15.495Z,91.30
2018-08-03T07:49:09.670Z,91.30
2018-08-03T07:54:04.557Z,91.70
2018-08-03T07:58:58.038Z,92.10
2018-08-03T08:03:51.731Z,91.80
2018-08-03T08:08:45.514Z,91.80
2018-08-03T08:18:31.732Z,92.60
2018-08-03T08:23:51.881Z,92.40
2018-08-03T08:28:52.043Z,92.00
2018-08-03T08:33:45.724Z,91.60
2018-08-03T08:38:40.616Z,91.30
2018-08-03T08:43:37.481Z,90.20
2018-08-03T08:48:31.188Z,89.40
2018-08-03T08:53:24.966Z,88.50
2018-08-03T08:58:18.426Z,87.50
2018-08-03T09:03:12.404Z,86.50
2018-08-03T09:08:09.820Z,86.20
2018-08-03T09:17:56.132Z,84.60
2018-08-03T09:22:50.155Z,84.10
2018-08-03T09:27:43.214Z,83.80
2018-08-03T09:32:37.391Z,84.90
2018-08-03T09:37:32.417Z,85.60
2018-08-03T09:52:16.341Z,83.50
2018-08-03T09:57:09.415Z,81.90
2018-08-03T10:02:02.536Z,81.70
2018-08-03T10:06:57.007Z,84.00
2018-08-03T10:16:43.347Z,83.20
2018-08-03T10:21:36.369Z,84.10
2018-08-03T10:26:30.089Z,83.20
2018-08-03T10:31:23.186Z,82.00
2018-08-03T10:50:56.447Z,81.90
2018-08-03T10:55:50.648Z,80.90
2018-08-03T11:00:44.316Z,79.70
2018-08-03T11:05:37.419Z,79.30
2018-08-03T11:10:30.469Z,78.60
2018-08-03T11:15:23.567Z,79.20
2018-08-03T11:20:16.864Z,79.20
2018-08-03T11:25:10.014Z,78.90
2018-08-03T11:30:04.741Z,78.40
2018-08-03T11:39:50.818Z,78.40
2018-08-03T11:44:43.837Z,78.70
2018-08-03T11:49:36.990Z,77.40
2018-08-03T11:59:23.163Z,76.50
2018-08-03T12:09:09.284Z,73.70
2018-08-03T12:14:02.437Z,71.70
2018-08-03T12:18:55.756Z,75.50
2018-08-03T12:23:48.910Z,73.10
2018-08-03T12:28:41.851Z,70.80
2018-08-03T12:33:34.909Z,71.00
2018-08-03T12:38:28.068Z,70.50
2018-08-03T12:43:21.146Z,69.10
2018-08-03T12:48:14.279Z,68.70
2018-08-03T12:58:00.369Z,68.20
2018-08-03T13:02:53.410Z,66.90
2018-08-03T13:07:51.248Z,66.50
2018-08-03T13:12:44.541Z,66.90
2018-08-03T13:22:30.857Z,67.60
2018-08-03T13:27:24.035Z,66.10
2018-08-03T13:32:17.011Z,65.40
2018-08-03T13:37:10.053Z,65.40
2018-08-03T13:42:03.116Z,63.60
2018-08-03T13:46:56.188Z,64.60
2018-08-03T13:51:51.825Z,65.00
2018-08-03T13:56:44.847Z,64.40
2018-08-03T14:06:43.324Z,64.40
2018-08-03T14:11:36.413Z,63.30
2018-08-03T14:16:29.559Z,63.60
2018-08-03T14:21:22.632Z,64.30
2018-08-03T14:26:16.195Z,63.20
2018-08-03T14:31:21.920Z,63.20
2018-08-03T14:36:15.796Z,64.50
2018-08-03T14:41:08.919Z,64.50
2018-08-03T14:50:54.996Z,64.30
2018-08-03T14:55:48.483Z,62.60
2018-08-03T15:00:41.544Z,61.20
2018-08-03T15:05:34.628Z,62.60
2018-08-03T15:10:27.766Z,64.80
2018-08-03T15:15:20.841Z,65.70
2018-08-03T15:20:13.897Z,66.10
2018-08-03T15:25:07.009Z,65.50
2018-08-03T15:30:00.104Z,67.10
2018-08-03T15:34:53.119Z,66.60
2018-08-03T15:39:46.113Z,67.60
2018-08-03T15:44:39.137Z,67.00
2018-08-03T15:49:32.146Z,67.50
2018-08-03T15:54:25.137Z,67.20
2018-08-03T15:59:18.300Z,66.70
2018-08-03T16:04:11.309Z,66.40
2018-08-03T16:14:00.099Z,66.50
2018-08-03T16:23:46.145Z,66.60
2018-08-03T16:28:39.183Z,66.70
2018-08-03T16:33:32.170Z,66.50
2018-08-03T16:38:25.172Z,67.10
2018-08-03T16:43:18.197Z,68.20
2018-08-03T16:48:11.209Z,68.20
2018-08-03T16:53:04.451Z,67.90
2018-08-03T16:57:57.565Z,68.60
2018-08-03T17:02:50.604Z,70.20
2018-08-03T17:12:36.885Z,68.80
2018-08-03T17:17:29.878Z,69.70
2018-08-03T17:22:22.892Z,69.30
2018-08-03T17:27:15.916Z,69.20
2018-08-03T17:32:08.936Z,69.50
2018-08-03T17:37:02.070Z,70.50
2018-08-03T17:41:54.945Z,70.50
2018-08-03T17:46:48.000Z,70.70
2018-08-03T17:51:40.996Z,70.50
2018-08-03T17:56:34.016Z,70.90
2018-08-03T18:01:27.091Z,70.90
2018-08-03T18:06:20.516Z,70.80
2018-08-03T18:16:07.007Z,71.80
2018-08-03T18:21:00.077Z,72.00
2018-08-03T18:25:53.081Z,72.80
2018-08-03T18:30:46.073Z,74.50
2018-08-03T18:40:32.236Z,74.80
2018-08-03T18:45:25.249Z,75.40
2018-08-03T18:50:18.240Z,75.60
2018-08-03T18:55:11.267Z,75.70
2018-08-03T19:00:04.581Z,76.30
2018-08-03T19:04:57.540Z,76.90
2018-08-03T19:09:50.562Z,77.30
2018-08-03T19:14:43.568Z,77.60
2018-08-03T19:19:36.609Z,77.70
2018-08-03T19:24:29.620Z,78.40
2018-08-03T19:29:22.664Z,78.80
2018-08-03T19:34:15.741Z,79.00
2018-08-03T19:39:10.087Z,80.00
2018-08-03T19:48:56.275Z,80.40
2018-08-03T19:53:49.248Z,80.60
2018-08-03T19:58:42.354Z,80.80
2018-08-03T20:03:35.326Z,81.10
2018-08-03T20:08:28.289Z,81.60
2018-08-03T20:13:21.358Z,81.90
2018-08-03T20:18:14.303Z,82.90
2018-08-03T20:23:07.308Z,82.40
2018-08-03T20:32:53.279Z,83.10
2018-08-03T20:37:46.272Z,83.40
2018-08-03T20:42:39.291Z,83.70
2018-08-03T20:47:32.307Z,83.90
2018-08-03T20:52:25.336Z,84.10
2018-08-03T20:57:18.359Z,84.40
2018-08-03T21:02:11.364Z,84.40
2018-08-03T21:07:04.373Z,84.80
2018-08-03T21:11:57.460Z,85.10
2018-08-03T21:16:50.428Z,85.30
2018-08-03T21:21:43.437Z,85.90
2018-08-03T21:26:36.452Z,85.90
2018-08-03T21:31:29.496Z,86.10
2018-08-03T21:36:22.491Z,86.30
2018-08-03T21:41:15.488Z,86.20
2018-08-03T21:46:08.502Z,86.30
2018-08-03T21:51:01.507Z,86.30
2018-08-03T21:55:54.488Z,86.70
2018-08-03T22:00:47.508Z,88.00
2018-08-03T22:10:33.416Z,90.70
2018-08-03T22:15:26.420Z,91.20
2018-08-03T22:20:19.409Z,91.50
2018-08-03T22:25:12.433Z,91.90
2018-08-03T22:34:58.451Z,92.50
2018-08-03T22:39:51.443Z,92.70
2018-08-03T22:44:44.476Z,93.20
2018-08-03T22:49:37.591Z,93.70
2018-08-03T22:59:23.516Z,94.10
2018-08-03T23:09:09.848Z,94.20
2018-08-03T23:14:02.988Z,94.40
2018-08-03T23:18:55.984Z,94.70
2018-08-03T23:23:48.965Z,94.40
2018-08-03T23:28:42.005Z,94.70
2018-08-03T23:33:35.061Z,94.90
2018-08-03T23:38:28.085Z,95.80
2018-08-03T23:48:14.020Z,95.90
2018-08-03T23:53:07.013Z,95.90
2018-08-03T23:58:00.021Z,96.00
